Time;durP1;ratioP1;P1;durP2;ratioP2;P2;SDS_P1;SDS_P2;PMS_P1;PMS_P2;Temp;Humidity;BMP_temperature;BMP_pressure;BME280_temperature;BME280_humidity;BME280_pressure;Samples;Min_cycle;Max_cycle;Signal;HPM_P1;HPM_P2
2022/01/02 00:00:19;;;;;;;13.30;8.40;;;;;;;;;;5019482;28;20022;-78
2022/01/02 00:02:52;;;;;;;12.75;8.77;;;;;;;;;;5026686;28;20025;-78
2022/01/02 00:05:22;;;;;;;15.48;9.95;;;;;;;;;;5027121;28;20089;-78
2022/01/02 00:08:01;;;;;;;14.38;9.45;;;;;;;;;;5026149;28;20022;-79
2022/01/02 00:10:31;;;;;;;13.73;8.80;;;;;;;;;;5021113;28;20062;-78
2022/01/02 00:12:58;;;;;;;13.23;8.70;;;;;;;;;;5025001;28;20022;-78
2022/01/02 00:15:26;;;;;;;13.57;9.38;;;;;;;;;;5024547;28;20037;-78
2022/01/02 00:17:56;;;;;;;14.43;9.73;;;;;;;;;;5017071;28;20084;-78
2022/01/02 00:20:35;;;;;;;14.27;9.95;;;;;;;;;;5026603;28;20029;-78
2022/01/02 00:23:07;;;;;;;15.07;9.23;;;;;;;;;;5027283;28;20025;-78
2022/01/02 00:25:42;;;;;;;15.48;9.70;;;;;;;;;;5026662;28;20408;-78
2022/01/02 00:28:08;;;;;;;14.52;9.57;;;;;;;;;;5027803;28;20014;-78
2022/01/02 00:30:34;;;;;;;14.45;9.55;;;;;;;;;;5024787;28;20038;-78
2022/01/02 00:33:01;;;;;;;14.30;9.52;;;;;;;;;;5026315;28;20085;-78
2022/01/02 00:35:28;;;;;;;15.70;9.20;;;;;;;;;;5026258;28;20033;-79
2022/01/02 00:37:54;;;;;;;13.88;8.88;;;;;;;;;;5007031;28;20093;-78
2022/01/02 00:40:20;;;;;;;15.07;8.80;;;;;;;;;;5019568;28;20037;-77
2022/01/02 00:42:48;;;;;;;15.13;9.57;;;;;;;;;;5022619;28;20022;-77
2022/01/02 00:45:20;;;;;;;14.45;9.05;;;;;;;;;;5024577;28;20078;-79
2022/01/02 00:48:01;;;;;;;13.50;8.77;;;;;;;;;;5024948;28;20087;-78
2022/01/02 00:50:34;;;;;;;13.55;8.88;;;;;;;;;;5025061;28;20269;-78
2022/01/02 00:53:02;;;;;;;12.60;8.48;;;;;;;;;;5026021;28;20400;-78
2022/01/02 00:55:31;;;;;;;13.73;8.80;;;;;;;;;;5026497;28;20042;-78
2022/01/02 00:57:59;;;;;;;11.52;8.07;;;;;;;;;;5025783;28;20396;-77
2022/01/02 01:00:26;;;;;;;12.80;8.15;;;;;;;;;;5024921;28;20041;-79
2022/01/02 01:02:53;;;;;;;14.32;9.27;;;;;;;;;;5025205;28;20020;-78
2022/01/02 01:05:25;;;;;;;13.38;8.63;;;;;;;;;;5022979;28;20105;-77
2022/01/02 01:07:52;;;;;;;13.93;9.15;;;;;;;;;;5005399;28;20081;-78
2022/01/02 01:10:19;;;;;;;12.10;8.50;;;;;;;;;;5024825;28;20046;-78
2022/01/02 01:12:48;;;;;;;12.40;8.50;;;;;;;;;;5025784;28;20026;-78
2022/01/02 01:15:15;;;;;;;11.00;7.80;;;;;;;;;;5022674;28;20030;-78
2022/01/02 01:17:41;;;;;;;10.82;7.72;;;;;;;;;;5022410;28;20399;-78
2022/01/02 01:20:09;;;;;;;14.18;8.70;;;;;;;;;;5026297;28;20022;-78
2022/01/02 01:22:39;;;;;;;12.57;8.45;;;;;;;;;;5025968;28;20030;-78
2022/01/02 01:25:07;;;;;;;13.48;8.68;;;;;;;;;;5024593;28;20041;-78
2022/01/02 01:27:34;;;;;;;11.73;7.70;;;;;;;;;;5021727;28;20030;-79
2022/01/02 01:30:02;;;;;;;11.73;7.93;;;;;;;;;;5005928;28;20069;-78
2022/01/02 01:32:28;;;;;;;11.73;7.70;;;;;;;;;;5026484;28;20093;-78
2022/01/02 01:34:54;;;;;;;14.30;8.73;;;;;;;;;;5025715;28;20112;-78
2022/01/02 01:37:20;;;;;;;16.05;9.75;;;;;;;;;;5026274;28;20030;-78
2022/01/02 01:39:46;;;;;;;15.65;8.95;;;;;;;;;;5025841;28;20088;-77
2022/01/02 01:42:13;;;;;;;14.90;9.43;;;;;;;;;;5025698;28;20054;-78
2022/01/02 01:45:02;;;;;;;14.85;9.15;;;;;;;;;;5025691;28;20033;-78
2022/01/02 01:47:25;;;;;;;14.63;10.52;;;;;;;;;;5025777;28;20042;-79
2022/01/02 01:49:52;;;;;;;13.52;9.73;;;;;;;;;;5029060;28;20029;-78
2022/01/02 01:52:20;;;;;;;14.60;9.13;;;;;;;;;;5028603;28;20038;-78
2022/01/02 01:54:46;;;;;;;12.70;9.00;;;;;;;;;;5027569;28;20381;-78
2022/01/02 01:57:13;;;;;;;13.77;9.55;;;;;;;;;;5029793;28;20093;-78
2022/01/02 01:59:39;;;;;;;12.63;8.75;;;;;;;;;;5028015;28;20089;-79
2022/01/02 02:02:06;;;;;;;12.95;8.68;;;;;;;;;;5026625;28;20028;-79
2022/01/02 02:04:32;;;;;;;13.15;8.80;;;;;;;;;;5028264;28;20041;-78
2022/01/02 02:06:58;;;;;;;14.18;8.20;;;;;;;;;;5026897;28;20130;-79
2022/01/02 02:09:28;;;;;;;14.13;9.68;;;;;;;;;;5026894;28;20018;-79
2022/01/02 02:11:59;;;;;;;12.88;8.68;;;;;;;;;;5027983;28;20014;-79
2022/01/02 02:14:26;;;;;;;12.30;8.52;;;;;;;;;;5026420;28;20034;-79
2022/01/02 02:16:52;;;;;;;11.95;8.35;;;;;;;;;;5027048;28;20029;-79
2022/01/02 02:19:18;;;;;;;12.45;8.27;;;;;;;;;;5026084;28;20065;-78
2022/01/02 02:21:45;;;;;;;12.88;8.57;;;;;;;;;;5026044;28;20046;-79
2022/01/02 02:24:11;;;;;;;13.85;8.15;;;;;;;;;;5024926;28;20490;-79
2022/01/02 02:26:38;;;;;;;13.23;7.97;;;;;;;;;;5023240;28;20033;-79
2022/01/02 02:29:05;;;;;;;15.52;8.55;;;;;;;;;;5027403;28;20022;-79
2022/01/02 02:31:31;;;;;;;13.45;9.25;;;;;;;;;;5025820;28;20030;-78
2022/01/02 02:33:57;;;;;;;13.50;9.40;;;;;;;;;;5021933;28;20030;-77
2022/01/02 02:36:23;;;;;;;12.52;8.07;;;;;;;;;;5021442;28;20113;-77
2022/01/02 02:38:52;;;;;;;16.02;8.40;;;;;;;;;;5025030;28;20044;-77
2022/01/02 02:41:19;;;;;;;16.33;9.95;;;;;;;;;;5025975;28;20040;-78
2022/01/02 02:43:55;;;;;;;15.43;9.88;;;;;;;;;;5025080;28;20021;-78
2022/01/02 02:49:07;;;;;;;14.98;8.80;;;;;;;;;;5028672;28;20045;-78
2022/01/02 02:51:50;;;;;;;12.60;8.20;;;;;;;;;;5029253;28;20034;-78
2022/01/02 02:54:18;;;;;;;13.95;7.70;;;;;;;;;;5029499;28;20459;-78
2022/01/02 02:56:57;;;;;;;11.75;7.63;;;;;;;;;;5035330;28;20060;-78
2022/01/02 02:59:25;;;;;;;12.65;8.25;;;;;;;;;;5031967;28;20174;-79
2022/01/02 03:01:52;;;;;;;13.38;7.93;;;;;;;;;;5030903;28;20064;-78
2022/01/02 03:04:18;;;;;;;10.45;7.32;;;;;;;;;;5038354;28;20075;-79
2022/01/02 03:06:44;;;;;;;11.55;7.75;;;;;;;;;;5044829;28;20037;-79
2022/01/02 03:09:11;;;;;;;14.48;8.63;;;;;;;;;;5046866;28;20084;-79
2022/01/02 03:11:39;;;;;;;14.13;9.30;;;;;;;;;;5030121;28;20026;-78
2022/01/02 03:14:06;;;;;;;17.85;10.15;;;;;;;;;;5031656;28;20030;-78
2022/01/02 03:16:32;;;;;;;15.05;10.15;;;;;;;;;;5038641;28;20037;-79
2022/01/02 03:18:59;;;;;;;15.15;9.43;;;;;;;;;;5049802;28;20029;-78
2022/01/02 03:21:26;;;;;;;13.77;9.50;;;;;;;;;;5010309;28;20049;-78
2022/01/02 03:23:52;;;;;;;13.73;9.27;;;;;;;;;;5022318;28;20029;-78
2022/01/02 03:26:19;;;;;;;17.20;10.60;;;;;;;;;;5028716;28;20050;-78
2022/01/02 03:28:45;;;;;;;16.27;9.98;;;;;;;;;;5020691;28;20164;-78
2022/01/02 03:31:12;;;;;;;14.45;9.65;;;;;;;;;;5031195;28;20034;-78
2022/01/02 03:33:38;;;;;;;16.17;9.93;;;;;;;;;;5029989;28;20089;-78
2022/01/02 03:36:04;;;;;;;15.73;8.75;;;;;;;;;;5028720;28;20046;-79
2022/01/02 03:38:33;;;;;;;13.80;8.80;;;;;;;;;;5026219;28;20064;-78
2022/01/02 03:41:00;;;;;;;13.88;8.05;;;;;;;;;;5029454;28;20040;-78
2022/01/02 03:43:26;;;;;;;13.80;8.38;;;;;;;;;;5029888;28;20041;-78
2022/01/02 03:45:52;;;;;;;12.85;8.40;;;;;;;;;;5049193;28;20048;-78
2022/01/02 03:48:18;;;;;;;12.70;8.30;;;;;;;;;;5015946;28;20026;-78
2022/01/02 03:50:44;;;;;;;11.88;8.95;;;;;;;;;;5027464;28;20104;-78
2022/01/02 03:53:11;;;;;;;11.82;7.80;;;;;;;;;;5027536;28;20051;-79
2022/01/02 03:55:39;;;;;;;14.07;8.20;;;;;;;;;;5028861;28;20034;-78
2022/01/02 03:58:06;;;;;;;11.48;7.13;;;;;;;;;;5029096;28;20037;-78
2022/01/02 04:00:32;;;;;;;10.95;7.25;;;;;;;;;;5027654;28;20038;-79
2022/01/02 04:02:59;;;;;;;11.65;7.38;;;;;;;;;;5026843;28;20026;-78
2022/01/02 04:05:26;;;;;;;12.43;8.20;;;;;;;;;;5040189;28;20034;-78
2022/01/02 04:07:52;;;;;;;12.02;8.18;;;;;;;;;;5029404;28;20030;-79
2022/01/02 04:10:19;;;;;;;12.93;8.07;;;;;;;;;;5027925;28;20053;-79
2022/01/02 04:12:45;;;;;;;13.20;8.48;;;;;;;;;;5022606;28;20034;-77
2022/01/02 04:15:12;;;;;;;11.93;7.97;;;;;;;;;;5023520;28;20029;-78
2022/01/02 04:17:38;;;;;;;18.00;9.07;;;;;;;;;;5025035;28;20026;-77
2022/01/02 04:20:06;;;;;;;12.27;8.40;;;;;;;;;;5024021;28;20058;-78
2022/01/02 04:22:32;;;;;;;16.55;9.07;;;;;;;;;;5024317;28;20444;-78
2022/01/02 04:24:58;;;;;;;16.83;9.48;;;;;;;;;;5024860;28;20022;-78
2022/01/02 04:27:24;;;;;;;20.52;10.05;;;;;;;;;;5024487;28;20505;-78
2022/01/02 04:29:51;;;;;;;19.05;10.60;;;;;;;;;;5021983;28;20026;-78
2022/01/02 04:32:17;;;;;;;16.00;9.45;;;;;;;;;;5023708;28;20026;-77
2022/01/02 04:34:44;;;;;;;22.77;10.68;;;;;;;;;;5024033;28;20033;-78
2022/01/02 04:37:13;;;;;;;20.17;10.73;;;;;;;;;;5024310;28;20030;-79
2022/01/02 04:39:40;;;;;;;55.25;13.80;;;;;;;;;;5016269;28;20038;-78
2022/01/02 04:42:07;;;;;;;18.67;11.20;;;;;;;;;;5027920;28;20041;-79
2022/01/02 04:44:33;;;;;;;17.02;10.77;;;;;;;;;;5027022;28;20076;-78
2022/01/02 04:46:59;;;;;;;19.27;10.50;;;;;;;;;;5026509;28;20459;-79
2022/01/02 04:49:25;;;;;;;12.10;8.57;;;;;;;;;;5022008;28;20026;-78
2022/01/02 04:51:53;;;;;;;16.50;8.85;;;;;;;;;;5021562;28;20026;-78
2022/01/02 04:54:21;;;;;;;14.30;8.25;;;;;;;;;;5021972;28;20419;-78
2022/01/02 04:56:48;;;;;;;12.75;7.63;;;;;;;;;;5024825;28;20487;-78
2022/01/02 04:59:14;;;;;;;15.27;7.32;;;;;;;;;;5025867;28;20030;-79
2022/01/02 05:01:55;;;;;;;13.05;7.75;;;;;;;;;;5027139;28;20037;-78
2022/01/02 05:04:21;;;;;;;15.57;7.78;;;;;;;;;;5027020;28;20053;-79
2022/01/02 05:06:47;;;;;;;14.80;8.20;;;;;;;;;;5028981;28;20030;-79
2022/01/02 05:09:14;;;;;;;11.73;7.40;;;;;;;;;;5028064;28;20034;-80
2022/01/02 05:11:40;;;;;;;14.68;8.52;;;;;;;;;;5027254;28;20034;-79
2022/01/02 05:14:06;;;;;;;12.15;7.85;;;;;;;;;;5027618;28;20026;-79
2022/01/02 05:16:32;;;;;;;12.23;8.07;;;;;;;;;;5026157;28;20040;-78
2022/01/02 05:18:59;;;;;;;17.88;8.77;;;;;;;;;;5025950;28;20026;-79
2022/01/02 05:21:25;;;;;;;14.05;9.18;;;;;;;;;;5024733;28;20160;-79
2022/01/02 05:23:52;;;;;;;17.33;12.38;;;;;;;;;;5025426;28;20389;-80
2022/01/02 05:26:22;;;;;;;16.27;11.38;;;;;;;;;;5024785;28;20030;-79
2022/01/02 05:28:49;;;;;;;24.88;11.23;;;;;;;;;;5025636;28;20045;-78
2022/01/02 05:31:25;;;;;;;23.13;10.73;;;;;;;;;;5026207;28;20488;-80
2022/01/02 05:33:52;;;;;;;24.98;12.18;;;;;;;;;;5024354;28;20048;-79
2022/01/02 05:36:22;;;;;;;17.20;10.70;;;;;;;;;;5023117;28;20022;-78
2022/01/02 05:38:48;;;;;;;24.45;11.55;;;;;;;;;;5021404;28;20038;-78
2022/01/02 05:41:15;;;;;;;22.27;13.30;;;;;;;;;;5024655;28;20090;-79
2022/01/02 05:43:41;;;;;;;18.55;12.35;;;;;;;;;;5023263;28;20041;-79
2022/01/02 05:46:07;;;;;;;16.40;10.50;;;;;;;;;;5020160;28;20435;-78
2022/01/02 05:48:34;;;;;;;24.40;12.00;;;;;;;;;;5019292;28;20026;-77
2022/01/02 05:51:01;;;;;;;19.10;11.02;;;;;;;;;;5019628;28;20037;-78
2022/01/02 05:53:27;;;;;;;18.20;10.68;;;;;;;;;;5021577;28;20057;-78
2022/01/02 05:55:53;;;;;;;15.38;10.40;;;;;;;;;;5022451;28;20026;-78
2022/01/02 05:58:19;;;;;;;25.02;11.27;;;;;;;;;;5019757;28;20025;-79
2022/01/02 06:00:45;;;;;;;16.23;9.55;;;;;;;;;;5020132;28;20097;-79
2022/01/02 06:03:11;;;;;;;21.30;12.15;;;;;;;;;;5020609;28;20160;-79
2022/01/02 06:05:37;;;;;;;17.40;11.20;;;;;;;;;;5020426;28;20034;-79
2022/01/02 06:08:04;;;;;;;15.57;10.05;;;;;;;;;;5019239;28;20097;-79
2022/01/02 06:10:30;;;;;;;31.65;11.93;;;;;;;;;;5012459;28;20026;-78
2022/01/02 06:12:56;;;;;;;23.58;10.43;;;;;;;;;;5027731;28;20018;-78
2022/01/02 06:15:22;;;;;;;23.17;10.55;;;;;;;;;;5024552;28;20023;-78
2022/01/02 06:17:48;;;;;;;20.02;9.52;;;;;;;;;;5026238;28;20026;-78
2022/01/02 06:20:14;;;;;;;30.15;10.93;;;;;;;;;;5025389;28;20028;-78
2022/01/02 06:22:41;;;;;;;20.73;9.82;;;;;;;;;;5024978;28;20033;-78
2022/01/02 06:25:07;;;;;;;24.20;10.30;;;;;;;;;;5022709;28;20048;-78
2022/01/02 06:27:34;;;;;;;17.02;9.98;;;;;;;;;;5031859;28;20423;-78
2022/01/02 06:30:00;;;;;;;21.60;10.82;;;;;;;;;;5017788;28;20028;-78
2022/01/02 06:32:26;;;;;;;14.52;9.20;;;;;;;;;;5024206;28;20029;-78
2022/01/02 06:34:52;;;;;;;17.48;9.40;;;;;;;;;;5022261;28;20030;-78
2022/01/02 06:37:20;;;;;;;18.92;10.18;;;;;;;;;;5022174;28;20036;-78
2022/01/02 06:39:46;;;;;;;25.00;10.10;;;;;;;;;;5022976;28;20034;-78
2022/01/02 06:42:12;;;;;;;16.15;10.23;;;;;;;;;;5022582;28;20029;-78
2022/01/02 06:44:38;;;;;;;14.45;9.10;;;;;;;;;;5024196;28;20022;-78
2022/01/02 06:47:04;;;;;;;16.38;9.93;;;;;;;;;;5022900;28;20508;-78
2022/01/02 06:49:32;;;;;;;16.27;10.25;;;;;;;;;;5025059;28;20033;-78
2022/01/02 06:51:58;;;;;;;15.43;9.95;;;;;;;;;;5027295;28;20029;-78
2022/01/02 06:54:24;;;;;;;15.27;10.38;;;;;;;;;;5024285;28;20065;-79
2022/01/02 06:56:50;;;;;;;18.85;10.52;;;;;;;;;;5026433;28;20038;-78
2022/01/02 06:59:17;;;;;;;28.17;12.40;;;;;;;;;;5023003;28;20040;-79
2022/01/02 07:01:43;;;;;;;24.30;13.70;;;;;;;;;;5026871;28;20105;-80
2022/01/02 07:04:09;;;;;;;19.88;12.60;;;;;;;;;;5024802;28;20026;-79
2022/01/02 07:06:36;;;;;;;18.02;11.88;;;;;;;;;;5016984;28;20033;-78
2022/01/02 07:09:02;;;;;;;20.35;13.70;;;;;;;;;;5013905;28;20032;-78
2022/01/02 07:11:28;;;;;;;23.42;12.10;;;;;;;;;;5016674;28;20030;-78
2022/01/02 07:13:54;;;;;;;19.90;12.38;;;;;;;;;;5017332;28;20121;-79
2022/01/02 07:16:20;;;;;;;21.90;12.25;;;;;;;;;;5016924;28;20026;-79
2022/01/02 07:18:46;;;;;;;19.45;11.93;;;;;;;;;;5017124;28;20032;-79
2022/01/02 07:21:13;;;;;;;19.45;11.35;;;;;;;;;;5016329;28;20147;-76
2022/01/02 07:23:39;;;;;;;17.95;11.27;;;;;;;;;;5014346;28;20125;-78
2022/01/02 07:26:06;;;;;;;25.10;13.73;;;;;;;;;;5016088;28;20052;-78
2022/01/02 07:28:33;;;;;;;39.38;14.25;;;;;;;;;;5016940;28;20010;-77
2022/01/02 07:31:00;;;;;;;23.38;13.70;;;;;;;;;;5015739;28;20029;-78
2022/01/02 07:33:26;;;;;;;21.75;13.55;;;;;;;;;;5016531;28;20038;-78
2022/01/02 07:35:52;;;;;;;21.10;12.48;;;;;;;;;;5017364;28;20117;-78
2022/01/02 07:38:18;;;;;;;25.73;13.15;;;;;;;;;;5017129;28;20034;-76
2022/01/02 07:40:44;;;;;;;20.38;12.65;;;;;;;;;;5016392;28;20097;-78
2022/01/02 07:43:10;;;;;;;21.83;12.30;;;;;;;;;;5016321;28;20025;-77
2022/01/02 07:45:36;;;;;;;18.98;12.20;;;;;;;;;;5014914;28;20344;-78
2022/01/02 07:48:03;;;;;;;20.27;10.52;;;;;;;;;;5016921;28;20037;-79
2022/01/02 07:53:32;;;;;;;16.25;10.30;;;;;;;;;;5014737;28;20076;-77
2022/01/02 07:55:58;;;;;;;15.13;9.95;;;;;;;;;;5013708;28;20065;-78
2022/01/02 07:58:25;;;;;;;18.75;11.27;;;;;;;;;;5016785;28;20081;-78
2022/01/02 08:00:51;;;;;;;18.05;9.95;;;;;;;;;;5015656;28;20026;-79
2022/01/02 08:03:17;;;;;;;18.45;10.05;;;;;;;;;;5018059;28;20018;-78
2022/01/02 08:05:44;;;;;;;16.10;10.18;;;;;;;;;;5031723;28;20022;-78
2022/01/02 08:08:10;;;;;;;13.88;9.85;;;;;;;;;;5017766;28;20022;-77
2022/01/02 08:10:39;;;;;;;13.63;8.85;;;;;;;;;;5017883;28;20054;-76
2022/01/02 08:13:05;;;;;;;14.00;9.35;;;;;;;;;;5018095;28;20090;-77
2022/01/02 08:15:32;;;;;;;15.77;10.10;;;;;;;;;;5016744;28;20018;-76
2022/01/02 08:17:58;;;;;;;15.30;10.88;;;;;;;;;;5015824;28;20057;-78
2022/01/02 08:20:24;;;;;;;16.42;11.80;;;;;;;;;;5014378;28;20029;-79
2022/01/02 08:22:51;;;;;;;21.13;13.38;;;;;;;;;;5015399;28;20053;-77
2022/01/02 08:25:17;;;;;;;18.77;12.85;;;;;;;;;;5014617;28;20018;-78
2022/01/02 08:27:44;;;;;;;16.35;12.15;;;;;;;;;;5014797;28;20536;-78
2022/01/02 08:30:10;;;;;;;17.15;11.85;;;;;;;;;;5016529;28;20068;-77
2022/01/02 08:32:38;;;;;;;56.47;15.82;;;;;;;;;;5016775;28;20126;-79
2022/01/02 08:35:05;;;;;;;26.52;13.65;;;;;;;;;;5016288;28;20038;-77
2022/01/02 08:37:31;;;;;;;16.80;11.48;;;;;;;;;;5015210;28;20029;-79
2022/01/02 08:39:57;;;;;;;20.35;12.15;;;;;;;;;;5016518;28;20113;-78
2022/01/02 08:42:23;;;;;;;20.90;12.02;;;;;;;;;;5016501;28;20451;-79
2022/01/02 08:44:49;;;;;;;17.20;11.52;;;;;;;;;;5014867;28;20026;-78
2022/01/02 08:47:15;;;;;;;16.80;11.32;;;;;;;;;;5016397;28;20399;-77
2022/01/02 08:49:42;;;;;;;28.00;12.70;;;;;;;;;;5015960;28;20026;-77
2022/01/02 08:52:08;;;;;;;49.30;15.30;;;;;;;;;;5014771;28;20385;-78
2022/01/02 08:54:34;;;;;;;22.00;11.85;;;;;;;;;;5015966;28;20045;-78
2022/01/02 08:57:02;;;;;;;84.20;18.33;;;;;;;;;;5015312;28;20029;-78
2022/01/02 08:59:28;;;;;;;33.42;12.95;;;;;;;;;;5015207;28;20036;-77
2022/01/02 09:01:55;;;;;;;44.80;14.27;;;;;;;;;;5016139;28;20029;-77
2022/01/02 09:04:25;;;;;;;26.88;11.95;;;;;;;;;;5019130;28;20053;-79
2022/01/02 09:06:51;;;;;;;30.88;12.95;;;;;;;;;;5018741;28;20025;-78
2022/01/02 09:09:17;;;;;;;41.30;13.77;;;;;;;;;;5019224;28;20058;-78
2022/01/02 09:11:43;;;;;;;19.40;11.57;;;;;;;;;;5020842;28;20022;-79
2022/01/02 09:14:09;;;;;;;50.40;14.55;;;;;;;;;;5020392;28;20030;-78
2022/01/02 09:16:35;;;;;;;103.97;20.67;;;;;;;;;;5018801;28;20033;-78
2022/01/02 09:19:01;;;;;;;46.92;15.30;;;;;;;;;;5020401;28;20136;-78
2022/01/02 09:21:28;;;;;;;54.45;13.32;;;;;;;;;;5019982;28;20040;-77
2022/01/02 09:23:54;;;;;;;80.22;18.67;;;;;;;;;;5019486;28;20025;-78
2022/01/02 09:26:20;;;;;;;51.47;14.30;;;;;;;;;;5019867;28;20041;-78
2022/01/02 09:28:46;;;;;;;62.33;15.95;;;;;;;;;;5020325;28;20037;-78
2022/01/02 09:31:12;;;;;;;40.22;14.90;;;;;;;;;;5019431;28;20022;-79
2022/01/02 09:33:38;;;;;;;69.05;21.02;;;;;;;;;;5017966;28;20026;-77
2022/01/02 09:36:04;;;;;;;38.78;17.25;;;;;;;;;;5017144;28;20540;-77
2022/01/02 09:38:30;;;;;;;120.38;25.00;;;;;;;;;;5015966;28;20177;-78
2022/01/02 09:40:56;;;;;;;62.22;20.25;;;;;;;;;;5016190;28;20022;-80
2022/01/02 09:43:22;;;;;;;30.73;14.95;;;;;;;;;;5015290;28;20041;-77
2022/01/02 09:45:49;;;;;;;24.88;13.93;;;;;;;;;;5015993;28;20030;-78
2022/01/02 09:48:15;;;;;;;23.17;13.55;;;;;;;;;;5019075;28;20036;-77
2022/01/02 09:50:43;;;;;;;21.30;12.60;;;;;;;;;;5020171;28;20498;-78
2022/01/02 09:53:09;;;;;;;18.90;11.13;;;;;;;;;;5020099;28;20026;-78
2022/01/02 09:55:35;;;;;;;19.67;10.48;;;;;;;;;;5020366;28;20054;-78
2022/01/02 09:58:04;;;;;;;17.45;10.80;;;;;;;;;;5020033;28;20025;-78
2022/01/02 10:00:30;;;;;;;18.50;11.20;;;;;;;;;;5019781;28;20029;-79
2022/01/02 10:03:03;;;;;;;19.35;12.95;;;;;;;;;;5019578;28;20022;-78
2022/01/02 10:05:31;;;;;;;17.92;12.75;;;;;;;;;;5019395;28;20500;-77
2022/01/02 10:07:57;;;;;;;22.92;15.00;;;;;;;;;;5018491;28;20022;-78
2022/01/02 10:10:33;;;;;;;24.65;14.52;;;;;;;;;;5018667;28;20022;-78
2022/01/02 10:13:01;;;;;;;20.75;13.82;;;;;;;;;;5019197;28;20026;-78
2022/01/02 10:15:28;;;;;;;21.05;14.07;;;;;;;;;;5018592;28;20388;-78
2022/01/02 10:18:08;;;;;;;19.30;13.77;;;;;;;;;;5018061;28;20022;-78
2022/01/02 10:20:34;;;;;;;19.40;13.50;;;;;;;;;;5017850;28;20057;-78
2022/01/02 10:23:06;;;;;;;22.27;15.70;;;;;;;;;;5018210;28;20030;-77
2022/01/02 10:25:37;;;;;;;23.70;16.45;;;;;;;;;;5018440;28;20045;-77
2022/01/02 10:28:18;;;;;;;25.95;17.98;;;;;;;;;;5018333;28;20034;-78
2022/01/02 10:30:48;;;;;;;19.85;12.65;;;;;;;;;;5018862;28;20511;-78
2022/01/02 10:33:14;;;;;;;17.27;11.63;;;;;;;;;;5018842;28;20022;-79
2022/01/02 10:35:41;;;;;;;21.50;12.85;;;;;;;;;;5020534;28;20018;-78
2022/01/02 10:38:07;;;;;;;15.68;11.80;;;;;;;;;;5021168;28;20022;-80
2022/01/02 10:40:34;;;;;;;16.48;12.23;;;;;;;;;;5020954;28;20034;-78
2022/01/02 10:43:02;;;;;;;15.18;9.90;;;;;;;;;;5020901;28;20030;-78
2022/01/02 10:45:34;;;;;;;14.00;9.05;;;;;;;;;;5020228;28;20057;-78
2022/01/02 10:48:01;;;;;;;15.60;9.73;;;;;;;;;;5021905;28;20077;-78
2022/01/02 10:50:27;;;;;;;14.10;8.90;;;;;;;;;;5020564;28;20030;-78
2022/01/02 10:52:53;;;;;;;11.10;9.48;;;;;;;;;;5020466;28;20026;-78
2022/01/02 10:55:24;;;;;;;12.32;9.82;;;;;;;;;;5021251;28;20046;-78
2022/01/02 10:57:52;;;;;;;14.60;10.00;;;;;;;;;;5018583;28;20033;-77
2022/01/02 11:00:21;;;;;;;10.88;8.70;;;;;;;;;;5017350;28;20057;-78
2022/01/02 11:02:48;;;;;;;12.40;9.32;;;;;;;;;;5020570;28;20022;-78
2022/01/02 11:05:15;;;;;;;13.35;9.18;;;;;;;;;;5019861;28;20032;-77
2022/01/02 11:07:42;;;;;;;9.98;8.23;;;;;;;;;;5019847;28;20053;-77
2022/01/02 11:10:09;;;;;;;10.25;8.63;;;;;;;;;;5018766;28;20022;-78
2022/01/02 11:12:37;;;;;;;13.43;9.18;;;;;;;;;;5019831;28;20045;-78
2022/01/02 11:15:03;;;;;;;11.70;9.30;;;;;;;;;;5022069;28;20117;-78
2022/01/02 11:17:30;;;;;;;10.65;9.10;;;;;;;;;;5019984;28;20026;-79
2022/01/02 11:19:56;;;;;;;13.52;10.98;;;;;;;;;;5017954;28;20037;-78
2022/01/02 11:22:29;;;;;;;11.45;10.05;;;;;;;;;;5019378;28;20034;-80
2022/01/02 11:25:14;;;;;;;13.00;9.43;;;;;;;;;;5017120;28;20022;-78
2022/01/02 11:27:43;;;;;;;11.65;8.82;;;;;;;;;;5017587;28;20018;-79
2022/01/02 11:30:34;;;;;;;10.80;7.75;;;;;;;;;;5018904;28;20030;-79
2022/01/02 11:33:01;;;;;;;11.13;8.32;;;;;;;;;;5020384;28;20477;-77
2022/01/02 11:35:31;;;;;;;11.82;8.65;;;;;;;;;;5019923;28;20369;-77
2022/01/02 11:38:01;;;;;;;10.85;8.35;;;;;;;;;;5020430;28;20084;-78
2022/01/02 11:40:43;;;;;;;10.60;8.75;;;;;;;;;;5020065;28;20022;-78
2022/01/02 11:43:09;;;;;;;10.48;7.80;;;;;;;;;;5020082;28;20041;-78
2022/01/02 11:45:35;;;;;;;9.23;7.18;;;;;;;;;;5020210;28;20511;-77
2022/01/02 11:48:21;;;;;;;11.65;7.43;;;;;;;;;;5020904;28;20021;-78
2022/01/02 11:50:49;;;;;;;11.30;7.63;;;;;;;;;;5019069;28;20026;-78
2022/01/02 11:53:19;;;;;;;10.93;7.35;;;;;;;;;;5019043;28;20057;-78
2022/01/02 11:55:46;;;;;;;10.63;7.90;;;;;;;;;;5019327;28;20461;-79
2022/01/02 11:58:13;;;;;;;10.10;7.07;;;;;;;;;;5020152;28;20033;-79
2022/01/02 12:00:44;;;;;;;9.48;6.95;;;;;;;;;;5018475;28;20118;-78
2022/01/02 12:03:29;;;;;;;9.65;7.13;;;;;;;;;;5020645;28;20113;-77
2022/01/02 12:06:13;;;;;;;11.57;7.80;;;;;;;;;;5019517;28;20477;-77
2022/01/02 12:08:39;;;;;;;10.60;6.90;;;;;;;;;;5018989;28;20025;-78
2022/01/02 12:11:24;;;;;;;10.80;7.57;;;;;;;;;;5020393;28;20030;-78
2022/01/02 12:14:02;;;;;;;9.32;6.70;;;;;;;;;;5019943;28;20064;-78
2022/01/02 12:16:35;;;;;;;9.40;6.80;;;;;;;;;;5017881;28;20033;-78
2022/01/02 12:19:03;;;;;;;12.95;8.30;;;;;;;;;;5019960;28;20036;-79
2022/01/02 12:21:31;;;;;;;10.40;7.43;;;;;;;;;;5018915;28;20117;-78
2022/01/02 12:23:58;;;;;;;10.10;7.28;;;;;;;;;;5020309;28;20436;-78
2022/01/02 12:26:34;;;;;;;11.32;7.60;;;;;;;;;;5018590;28;20026;-78
2022/01/02 12:29:02;;;;;;;10.85;7.07;;;;;;;;;;5018982;28;20030;-79
2022/01/02 12:31:35;;;;;;;10.80;7.13;;;;;;;;;;5019360;28;20080;-79
2022/01/02 12:34:07;;;;;;;9.45;6.68;;;;;;;;;;5017431;28;20496;-79
2022/01/02 12:36:33;;;;;;;9.10;6.78;;;;;;;;;;5017016;28;20029;-79
2022/01/02 12:39:06;;;;;;;10.43;7.70;;;;;;;;;;5019321;28;20026;-78
2022/01/02 12:41:34;;;;;;;10.15;7.10;;;;;;;;;;5016207;28;20068;-78
2022/01/02 12:44:07;;;;;;;11.40;6.78;;;;;;;;;;5018198;28;20022;-78
2022/01/02 12:46:33;;;;;;;10.13;6.97;;;;;;;;;;5015879;28;20028;-77
2022/01/02 12:49:00;;;;;;;9.05;6.82;;;;;;;;;;5018008;28;20108;-78
2022/01/02 12:51:30;;;;;;;9.10;6.68;;;;;;;;;;5018053;28;20376;-78
2022/01/02 12:54:04;;;;;;;10.43;6.63;;;;;;;;;;5017234;28;20500;-79
2022/01/02 12:56:31;;;;;;;11.07;7.38;;;;;;;;;;5019133;28;20028;-77
2022/01/02 12:59:11;;;;;;;10.73;7.07;;;;;;;;;;5017135;28;20028;-77
2022/01/02 13:01:47;;;;;;;10.85;7.38;;;;;;;;;;5014615;28;20036;-78
2022/01/02 13:04:13;;;;;;;9.55;6.75;;;;;;;;;;5016470;28;20027;-78
2022/01/02 13:06:39;;;;;;;10.00;7.00;;;;;;;;;;5016493;28;20025;-78
2022/01/02 13:09:05;;;;;;;10.23;7.10;;;;;;;;;;5015845;28;20034;-79
2022/01/02 13:11:35;;;;;;;10.38;8.13;;;;;;;;;;5017509;28;20036;-78
2022/01/02 13:14:01;;;;;;;10.90;7.57;;;;;;;;;;5016630;28;20548;-79
2022/01/02 13:16:27;;;;;;;10.07;6.38;;;;;;;;;;5018079;28;20038;-79
2022/01/02 13:18:54;;;;;;;10.15;6.95;;;;;;;;;;5016881;28;20029;-78
2022/01/02 13:21:20;;;;;;;9.52;7.20;;;;;;;;;;5018239;28;20033;-79
2022/01/02 13:23:46;;;;;;;9.18;6.90;;;;;;;;;;5019499;28;20081;-79
2022/01/02 13:26:16;;;;;;;10.90;7.78;;;;;;;;;;5016632;28;20026;-79
2022/01/02 13:28:42;;;;;;;11.95;7.53;;;;;;;;;;4999784;28;20022;-78
2022/01/02 13:31:08;;;;;;;11.38;7.97;;;;;;;;;;4999552;28;20033;-79
2022/01/02 13:33:43;;;;;;;10.32;7.88;;;;;;;;;;4998043;28;20054;-78
2022/01/02 13:36:12;;;;;;;10.40;7.22;;;;;;;;;;4998678;28;20023;-78
2022/01/02 13:38:58;;;;;;;10.95;8.00;;;;;;;;;;4997733;28;20027;-78
2022/01/02 13:41:24;;;;;;;10.77;7.40;;;;;;;;;;4998460;28;20030;-78
2022/01/02 13:43:52;;;;;;;14.00;8.93;;;;;;;;;;4999258;28;20026;-79
2022/01/02 13:46:18;;;;;;;13.38;7.70;;;;;;;;;;4997601;28;20489;-78
2022/01/02 13:48:44;;;;;;;13.77;8.57;;;;;;;;;;5017171;28;20022;-78
2022/01/02 13:51:14;;;;;;;13.07;8.70;;;;;;;;;;5019419;28;20033;-79
2022/01/02 13:53:41;;;;;;;11.65;8.50;;;;;;;;;;5017666;28;20050;-79
2022/01/02 13:56:07;;;;;;;12.35;8.18;;;;;;;;;;5017280;28;20120;-78
2022/01/02 13:58:43;;;;;;;12.10;8.20;;;;;;;;;;5020915;28;20022;-79
2022/01/02 14:01:17;;;;;;;15.05;9.52;;;;;;;;;;5019153;28;20036;-79
2022/01/02 14:03:43;;;;;;;14.63;9.13;;;;;;;;;;5021169;28;20503;-80
2022/01/02 14:06:11;;;;;;;16.10;10.98;;;;;;;;;;5020834;28;20022;-79
2022/01/02 14:08:47;;;;;;;14.05;9.25;;;;;;;;;;5019421;28;20022;-79
2022/01/02 14:11:17;;;;;;;13.32;9.57;;;;;;;;;;5020100;28;20022;-78
2022/01/02 14:13:48;;;;;;;13.80;8.88;;;;;;;;;;5021217;28;20026;-79
2022/01/02 14:16:31;;;;;;;12.43;8.35;;;;;;;;;;5020934;28;20057;-79
2022/01/02 14:18:57;;;;;;;13.98;8.85;;;;;;;;;;5023293;28;20517;-79
2022/01/02 14:21:23;;;;;;;10.77;8.25;;;;;;;;;;5021231;28;20044;-78
2022/01/02 14:23:49;;;;;;;12.68;8.88;;;;;;;;;;5019884;28;20092;-79
2022/01/02 14:26:15;;;;;;;11.90;8.52;;;;;;;;;;5017646;28;20022;-78
2022/01/02 14:28:42;;;;;;;11.20;8.45;;;;;;;;;;5017582;28;20368;-78
2022/01/02 14:31:08;;;;;;;12.27;8.88;;;;;;;;;;5018758;28;20021;-78
2022/01/02 14:33:34;;;;;;;11.50;9.07;;;;;;;;;;5021926;28;20025;-79
2022/01/02 14:36:00;;;;;;;12.88;9.25;;;;;;;;;;5021055;28;20069;-78